sensor_id;sensor_type;location;lat;lon;timestamp;temperature;humidity
41644;DHT22;44236;48.098;11.582;2023-04-21T00:00:00;20.00;48.00
41644;DHT22;44236;48.098;11.582;2023-04-21T00:02:25;20.00;48.10
41644;DHT22;44236;48.098;11.582;2023-04-21T00:04:52;20.00;48.20
41644;DHT22;44236;48.098;11.582;2023-04-21T00:07:18;20.00;48.70
41644;DHT22;44236;48.098;11.582;2023-04-21T00:09:44;20.00;48.20
41644;DHT22;44236;48.098;11.582;2023-04-21T00:12:10;20.00;48.60
41644;DHT22;44236;48.098;11.582;2023-04-21T00:14:36;20.00;48.60
41644;DHT22;44236;48.098;11.582;2023-04-21T00:17:01;20.00;48.70
41644;DHT22;44236;48.098;11.582;2023-04-21T00:19:27;20.00;48.70
41644;DHT22;44236;48.098;11.582;2023-04-21T00:21:54;20.00;49.00
41644;DHT22;44236;48.098;11.582;2023-04-21T00:24:25;20.00;48.80
41644;DHT22;44236;48.098;11.582;2023-04-21T00:26:51;20.00;48.70
41644;DHT22;44236;48.098;11.582;2023-04-21T00:29:17;20.00;48.80
41644;DHT22;44236;48.098;11.582;2023-04-21T00:31:42;20.00;49.20
41644;DHT22;44236;48.098;11.582;2023-04-21T00:34:08;19.90;49.00
41644;DHT22;44236;48.098;11.582;2023-04-21T00:36:34;20.00;48.60
41644;DHT22;44236;48.098;11.582;2023-04-21T00:38:59;20.00;49.20
41644;DHT22;44236;48.098;11.582;2023-04-21T00:41:27;19.90;48.70
41644;DHT22;44236;48.098;11.582;2023-04-21T00:44:03;19.90;48.70
41644;DHT22;44236;48.098;11.582;2023-04-21T00:46:28;19.90;48.70
41644;DHT22;44236;48.098;11.582;2023-04-21T00:48:54;19.90;48.80
41644;DHT22;44236;48.098;11.582;2023-04-21T00:51:20;19.90;48.80
41644;DHT22;44236;48.098;11.582;2023-04-21T00:53:45;19.90;48.80
41644;DHT22;44236;48.098;11.582;2023-04-21T00:56:11;19.90;48.90
41644;DHT22;44236;48.098;11.582;2023-04-21T00:58:41;19.90;48.80
41644;DHT22;44236;48.098;11.582;2023-04-21T01:01:07;19.90;49.40
41644;DHT22;44236;48.098;11.582;2023-04-21T01:03:32;19.90;49.20
41644;DHT22;44236;48.098;11.582;2023-04-21T01:05:58;19.90;49.30
41644;DHT22;44236;48.098;11.582;2023-04-21T01:08:25;19.90;49.40
41644;DHT22;44236;48.098;11.582;2023-04-21T01:10:51;19.90;49.10
41644;DHT22;44236;48.098;11.582;2023-04-21T01:13:20;19.90;49.10
41644;DHT22;44236;48.098;11.582;2023-04-21T01:15:48;19.90;49.20
41644;DHT22;44236;48.098;11.582;2023-04-21T01:18:14;19.90;49.10
41644;DHT22;44236;48.098;11.582;2023-04-21T01:20:41;19.90;49.20
41644;DHT22;44236;48.098;11.582;2023-04-21T01:23:09;19.90;49.30
41644;DHT22;44236;48.098;11.582;2023-04-21T01:25:35;19.90;49.30
41644;DHT22;44236;48.098;11.582;2023-04-21T01:28:01;19.90;49.00
41644;DHT22;44236;48.098;11.582;2023-04-21T01:30:27;19.80;49.20
41644;DHT22;44236;48.098;11.582;2023-04-21T01:32:52;19.80;49.30
41644;DHT22;44236;48.098;11.582;2023-04-21T01:35:18;19.80;49.10
41644;DHT22;44236;48.098;11.582;2023-04-21T01:37:43;19.80;49.20
41644;DHT22;44236;48.098;11.582;2023-04-21T01:40:09;19.80;49.00
41644;DHT22;44236;48.098;11.582;2023-04-21T01:42:38;19.80;49.50
41644;DHT22;44236;48.098;11.582;2023-04-21T01:45:05;19.80;49.50
41644;DHT22;44236;48.098;11.582;2023-04-21T01:47:31;19.80;49.70
41644;DHT22;44236;48.098;11.582;2023-04-21T01:49:56;19.80;49.50
41644;DHT22;44236;48.098;11.582;2023-04-21T01:52:22;19.80;49.50
41644;DHT22;44236;48.098;11.582;2023-04-21T01:54:48;19.80;49.50
41644;DHT22;44236;48.098;11.582;2023-04-21T01:57:15;19.80;49.50
41644;DHT22;44236;48.098;11.582;2023-04-21T01:59:40;19.80;49.90
41644;DHT22;44236;48.098;11.582;2023-04-21T02:02:06;19.80;49.70
41644;DHT22;44236;48.098;11.582;2023-04-21T02:04:32;19.80;49.70
41644;DHT22;44236;48.098;11.582;2023-04-21T02:06:57;19.80;49.80
41644;DHT22;44236;48.098;11.582;2023-04-21T02:09:23;19.70;49.80
41644;DHT22;44236;48.098;11.582;2023-04-21T02:11:48;19.70;49.70
41644;DHT22;44236;48.098;11.582;2023-04-21T02:14:14;19.80;49.80
41644;DHT22;44236;48.098;11.582;2023-04-21T02:16:40;19.70;50.00
41644;DHT22;44236;48.098;11.582;2023-04-21T02:19:06;19.70;49.90
41644;DHT22;44236;48.098;11.582;2023-04-21T02:21:31;19.80;49.80
41644;DHT22;44236;48.098;11.582;2023-04-21T02:23:57;19.70;49.70
41644;DHT22;44236;48.098;11.582;2023-04-21T02:26:26;19.70;49.80
41644;DHT22;44236;48.098;11.582;2023-04-21T02:28:52;19.70;49.70
41644;DHT22;44236;48.098;11.582;2023-04-21T02:31:17;19.70;49.80
41644;DHT22;44236;48.098;11.582;2023-04-21T02:33:59;19.70;49.80
41644;DHT22;44236;48.098;11.582;2023-04-21T02:36:27;19.70;49.90
41644;DHT22;44236;48.098;11.582;2023-04-21T02:38:53;19.90;49.80
41644;DHT22;44236;48.098;11.582;2023-04-21T02:41:18;19.70;50.20
41644;DHT22;44236;48.098;11.582;2023-04-21T02:43:44;19.70;49.90
41644;DHT22;44236;48.098;11.582;2023-04-21T02:46:09;19.70;49.80
41644;DHT22;44236;48.098;11.582;2023-04-21T02:48:35;19.70;50.00
41644;DHT22;44236;48.098;11.582;2023-04-21T02:51:01;19.70;49.90
41644;DHT22;44236;48.098;11.582;2023-04-21T02:53:27;19.70;49.70
41644;DHT22;44236;48.098;11.582;2023-04-21T02:55:52;19.70;49.80
41644;DHT22;44236;48.098;11.582;2023-04-21T02:58:18;19.60;50.10
41644;DHT22;44236;48.098;11.582;2023-04-21T03:00:44;19.60;49.90
41644;DHT22;44236;48.098;11.582;2023-04-21T03:03:09;19.60;49.90
41644;DHT22;44236;48.098;11.582;2023-04-21T03:05:35;19.60;49.70
41644;DHT22;44236;48.098;11.582;2023-04-21T03:08:01;19.60;49.70
41644;DHT22;44236;48.098;11.582;2023-04-21T03:10:26;19.60;49.70
41644;DHT22;44236;48.098;11.582;2023-04-21T03:12:52;19.60;49.70
41644;DHT22;44236;48.098;11.582;2023-04-21T03:15:18;19.60;50.00
41644;DHT22;44236;48.098;11.582;2023-04-21T03:17:43;19.60;49.90
41644;DHT22;44236;48.098;11.582;2023-04-21T03:20:09;19.60;49.90
41644;DHT22;44236;48.098;11.582;2023-04-21T03:22:37;19.60;50.00
41644;DHT22;44236;48.098;11.582;2023-04-21T03:25:04;19.60;49.80
41644;DHT22;44236;48.098;11.582;2023-04-21T03:27:30;19.60;50.00
41644;DHT22;44236;48.098;11.582;2023-04-21T03:29:55;19.50;50.00
41644;DHT22;44236;48.098;11.582;2023-04-21T03:32:21;19.50;49.60
41644;DHT22;44236;48.098;11.582;2023-04-21T03:34:47;19.50;49.80
41644;DHT22;44236;48.098;11.582;2023-04-21T03:37:14;19.50;49.90
41644;DHT22;44236;48.098;11.582;2023-04-21T03:39:40;19.50;49.80
41644;DHT22;44236;48.098;11.582;2023-04-21T03:42:05;19.50;49.90
41644;DHT22;44236;48.098;11.582;2023-04-21T03:44:31;19.50;50.20
41644;DHT22;44236;48.098;11.582;2023-04-21T03:46:56;19.50;50.00
41644;DHT22;44236;48.098;11.582;2023-04-21T03:49:23;19.50;50.20
41644;DHT22;44236;48.098;11.582;2023-04-21T03:51:48;19.50;49.80
41644;DHT22;44236;48.098;11.582;2023-04-21T03:54:14;19.50;50.10
41644;DHT22;44236;48.098;11.582;2023-04-21T03:56:39;19.50;50.10
41644;DHT22;44236;48.098;11.582;2023-04-21T03:59:05;19.50;49.80
41644;DHT22;44236;48.098;11.582;2023-04-21T04:01:32;19.50;50.00
41644;DHT22;44236;48.098;11.582;2023-04-21T04:03:58;19.50;50.00
41644;DHT22;44236;48.098;11.582;2023-04-21T04:06:23;19.50;49.90
41644;DHT22;44236;48.098;11.582;2023-04-21T04:08:49;19.50;49.90
41644;DHT22;44236;48.098;11.582;2023-04-21T04:11:15;19.50;49.70
41644;DHT22;44236;48.098;11.582;2023-04-21T04:13:40;19.50;49.60
41644;DHT22;44236;48.098;11.582;2023-04-21T04:16:06;19.50;49.70
41644;DHT22;44236;48.098;11.582;2023-04-21T04:18:32;19.40;50.10
41644;DHT22;44236;48.098;11.582;2023-04-21T04:20:57;19.50;49.10
41644;DHT22;44236;48.098;11.582;2023-04-21T04:23:23;19.60;47.90
41644;DHT22;44236;48.098;11.582;2023-04-21T04:25:48;19.70;47.60
41644;DHT22;44236;48.098;11.582;2023-04-21T04:28:16;19.70;47.30
41644;DHT22;44236;48.098;11.582;2023-04-21T04:30:41;19.70;47.30
41644;DHT22;44236;48.098;11.582;2023-04-21T04:33:08;19.80;47.00
41644;DHT22;44236;48.098;11.582;2023-04-21T04:35:34;19.80;46.90
41644;DHT22;44236;48.098;11.582;2023-04-21T04:38:00;19.80;46.80
41644;DHT22;44236;48.098;11.582;2023-04-21T04:40:26;19.80;46.60
41644;DHT22;44236;48.098;11.582;2023-04-21T04:42:53;19.90;47.20
41644;DHT22;44236;48.098;11.582;2023-04-21T04:45:19;19.90;46.70
41644;DHT22;44236;48.098;11.582;2023-04-21T04:47:47;19.80;46.70
41644;DHT22;44236;48.098;11.582;2023-04-21T04:50:12;19.90;46.60
41644;DHT22;44236;48.098;11.582;2023-04-21T04:52:38;19.90;46.70
41644;DHT22;44236;48.098;11.582;2023-04-21T04:55:04;20.00;46.60
41644;DHT22;44236;48.098;11.582;2023-04-21T04:57:30;20.00;46.40
41644;DHT22;44236;48.098;11.582;2023-04-21T04:59:56;20.00;46.40
41644;DHT22;44236;48.098;11.582;2023-04-21T05:02:21;20.00;46.30
41644;DHT22;44236;48.098;11.582;2023-04-21T05:04:49;20.00;46.40
41644;DHT22;44236;48.098;11.582;2023-04-21T05:07:14;20.10;46.40
41644;DHT22;44236;48.098;11.582;2023-04-21T05:09:40;20.10;46.50
41644;DHT22;44236;48.098;11.582;2023-04-21T05:12:06;20.20;46.40
41644;DHT22;44236;48.098;11.582;2023-04-21T05:14:31;20.20;46.50
41644;DHT22;44236;48.098;11.582;2023-04-21T05:16:57;20.20;46.60
41644;DHT22;44236;48.098;11.582;2023-04-21T05:19:22;20.20;46.80
41644;DHT22;44236;48.098;11.582;2023-04-21T05:21:48;20.30;46.80
41644;DHT22;44236;48.098;11.582;2023-04-21T05:24:13;20.30;46.80
41644;DHT22;44236;48.098;11.582;2023-04-21T05:26:39;20.30;47.10
41644;DHT22;44236;48.098;11.582;2023-04-21T05:29:05;20.40;46.50
41644;DHT22;44236;48.098;11.582;2023-04-21T05:31:30;20.40;46.80
41644;DHT22;44236;48.098;11.582;2023-04-21T05:33:57;20.50;46.40
41644;DHT22;44236;48.098;11.582;2023-04-21T05:36:22;20.50;46.20
41644;DHT22;44236;48.098;11.582;2023-04-21T05:38:49;20.50;46.40
41644;DHT22;44236;48.098;11.582;2023-04-21T05:41:15;20.50;46.40
41644;DHT22;44236;48.098;11.582;2023-04-21T05:43:40;20.50;45.90
41644;DHT22;44236;48.098;11.582;2023-04-21T05:46:09;20.60;46.10
41644;DHT22;44236;48.098;11.582;2023-04-21T05:48:35;20.60;46.40
41644;DHT22;44236;48.098;11.582;2023-04-21T05:51:08;20.60;46.30
41644;DHT22;44236;48.098;11.582;2023-04-21T05:53:35;20.60;46.30
41644;DHT22;44236;48.098;11.582;2023-04-21T05:56:01;20.60;46.20
41644;DHT22;44236;48.098;11.582;2023-04-21T05:58:27;20.60;46.20
41644;DHT22;44236;48.098;11.582;2023-04-21T06:00:52;20.60;46.00
41644;DHT22;44236;48.098;11.582;2023-04-21T06:03:18;20.60;46.10
41644;DHT22;44236;48.098;11.582;2023-04-21T06:05:43;20.70;46.10
41644;DHT22;44236;48.098;11.582;2023-04-21T06:08:09;20.60;46.50
41644;DHT22;44236;48.098;11.582;2023-04-21T06:10:34;20.70;46.40
41644;DHT22;44236;48.098;11.582;2023-04-21T06:13:00;20.70;46.60
41644;DHT22;44236;48.098;11.582;2023-04-21T06:15:26;20.60;46.10
41644;DHT22;44236;48.098;11.582;2023-04-21T06:17:52;20.60;46.10
41644;DHT22;44236;48.098;11.582;2023-04-21T06:20:19;20.60;46.60
41644;DHT22;44236;48.098;11.582;2023-04-21T06:22:45;20.60;46.10
41644;DHT22;44236;48.098;11.582;2023-04-21T06:25:10;20.70;45.80
41644;DHT22;44236;48.098;11.582;2023-04-21T06:27:36;20.60;46.30
41644;DHT22;44236;48.098;11.582;2023-04-21T06:30:02;20.60;46.10
41644;DHT22;44236;48.098;11.582;2023-04-21T06:32:27;20.60;46.20
41644;DHT22;44236;48.098;11.582;2023-04-21T06:34:53;20.60;45.40
41644;DHT22;44236;48.098;11.582;2023-04-21T06:37:18;20.60;46.10
41644;DHT22;44236;48.098;11.582;2023-04-21T06:39:44;20.60;47.60
41644;DHT22;44236;48.098;11.582;2023-04-21T06:42:10;20.60;47.20
41644;DHT22;44236;48.098;11.582;2023-04-21T06:44:38;20.50;46.70
41644;DHT22;44236;48.098;11.582;2023-04-21T06:47:04;20.50;46.30
41644;DHT22;44236;48.098;11.582;2023-04-21T06:49:30;20.50;46.00
41644;DHT22;44236;48.098;11.582;2023-04-21T06:51:55;20.50;46.40
41644;DHT22;44236;48.098;11.582;2023-04-21T06:54:21;20.50;46.10
41644;DHT22;44236;48.098;11.582;2023-04-21T06:56:46;20.50;45.60
41644;DHT22;44236;48.098;11.582;2023-04-21T06:59:12;20.50;46.00
41644;DHT22;44236;48.098;11.582;2023-04-21T07:01:37;20.50;46.20
41644;DHT22;44236;48.098;11.582;2023-04-21T07:04:03;20.50;46.30
41644;DHT22;44236;48.098;11.582;2023-04-21T07:06:30;20.50;45.90
41644;DHT22;44236;48.098;11.582;2023-04-21T07:08:56;20.50;46.40
41644;DHT22;44236;48.098;11.582;2023-04-21T07:11:22;20.50;46.60
41644;DHT22;44236;48.098;11.582;2023-04-21T07:13:47;20.40;45.90
41644;DHT22;44236;48.098;11.582;2023-04-21T07:16:13;20.40;46.60
41644;DHT22;44236;48.098;11.582;2023-04-21T07:18:39;20.40;46.30
41644;DHT22;44236;48.098;11.582;2023-04-21T07:21:06;20.40;46.50
41644;DHT22;44236;48.098;11.582;2023-04-21T07:23:31;20.40;46.20
41644;DHT22;44236;48.098;11.582;2023-04-21T07:25:58;20.30;45.90
41644;DHT22;44236;48.098;11.582;2023-04-21T07:28:23;20.30;46.70
41644;DHT22;44236;48.098;11.582;2023-04-21T07:30:52;20.30;46.10
41644;DHT22;44236;48.098;11.582;2023-04-21T07:33:18;20.40;46.90
41644;DHT22;44236;48.098;11.582;2023-04-21T07:35:43;20.30;47.20
41644;DHT22;44236;48.098;11.582;2023-04-21T07:38:09;20.30;48.00
41644;DHT22;44236;48.098;11.582;2023-04-21T07:40:35;20.30;48.20
41644;DHT22;44236;48.098;11.582;2023-04-21T07:43:03;20.30;48.40
41644;DHT22;44236;48.098;11.582;2023-04-21T07:45:29;20.30;48.50
41644;DHT22;44236;48.098;11.582;2023-04-21T07:47:58;20.30;48.40
41644;DHT22;44236;48.098;11.582;2023-04-21T07:50:24;20.30;48.40
41644;DHT22;44236;48.098;11.582;2023-04-21T07:52:49;20.30;48.80
41644;DHT22;44236;48.098;11.582;2023-04-21T07:55:15;20.30;48.50
41644;DHT22;44236;48.098;11.582;2023-04-21T07:57:40;20.30;48.30
41644;DHT22;44236;48.098;11.582;2023-04-21T08:00:07;20.40;48.30
41644;DHT22;44236;48.098;11.582;2023-04-21T08:02:33;20.40;48.40
41644;DHT22;44236;48.098;11.582;2023-04-21T08:04:59;20.40;48.30
41644;DHT22;44236;48.098;11.582;2023-04-21T08:07:24;20.40;48.10
41644;DHT22;44236;48.098;11.582;2023-04-21T08:09:50;20.50;48.10
41644;DHT22;44236;48.098;11.582;2023-04-21T08:12:16;20.50;48.00
41644;DHT22;44236;48.098;11.582;2023-04-21T08:14:41;20.60;47.60
41644;DHT22;44236;48.098;11.582;2023-04-21T08:17:07;20.70;47.50
41644;DHT22;44236;48.098;11.582;2023-04-21T08:19:33;20.70;46.90
41644;DHT22;44236;48.098;11.582;2023-04-21T08:21:58;20.80;47.20
41644;DHT22;44236;48.098;11.582;2023-04-21T08:24:24;20.80;47.30
41644;DHT22;44236;48.098;11.582;2023-04-21T08:26:50;20.90;47.00
41644;DHT22;44236;48.098;11.582;2023-04-21T08:29:15;20.90;47.00
41644;DHT22;44236;48.098;11.582;2023-04-21T08:31:41;21.00;47.00
41644;DHT22;44236;48.098;11.582;2023-04-21T08:34:07;21.00;47.40
41644;DHT22;44236;48.098;11.582;2023-04-21T08:36:32;20.90;47.20
41644;DHT22;44236;48.098;11.582;2023-04-21T08:38:58;20.80;47.00
41644;DHT22;44236;48.098;11.582;2023-04-21T08:41:25;20.70;47.30
41644;DHT22;44236;48.098;11.582;2023-04-21T08:43:51;20.70;47.70
41644;DHT22;44236;48.098;11.582;2023-04-21T08:46:17;20.70;47.40
41644;DHT22;44236;48.098;11.582;2023-04-21T08:48:47;20.70;47.70
41644;DHT22;44236;48.098;11.582;2023-04-21T08:51:20;20.70;47.70
41644;DHT22;44236;48.098;11.582;2023-04-21T08:53:46;20.80;47.20
41644;DHT22;44236;48.098;11.582;2023-04-21T08:56:11;20.80;47.30
41644;DHT22;44236;48.098;11.582;2023-04-21T08:58:37;20.80;47.60
41644;DHT22;44236;48.098;11.582;2023-04-21T09:01:02;20.80;47.40
41644;DHT22;44236;48.098;11.582;2023-04-21T09:03:29;20.80;47.40
41644;DHT22;44236;48.098;11.582;2023-04-21T09:06:06;20.60;47.60
41644;DHT22;44236;48.098;11.582;2023-04-21T09:08:33;20.70;47.90
41644;DHT22;44236;48.098;11.582;2023-04-21T09:11:00;20.70;48.00
41644;DHT22;44236;48.098;11.582;2023-04-21T09:13:34;20.70;48.10
41644;DHT22;44236;48.098;11.582;2023-04-21T09:16:01;20.80;48.20
41644;DHT22;44236;48.098;11.582;2023-04-21T09:18:29;20.80;47.80
41644;DHT22;44236;48.098;11.582;2023-04-21T09:21:08;20.70;47.90
41644;DHT22;44236;48.098;11.582;2023-04-21T09:23:50;20.60;48.40
41644;DHT22;44236;48.098;11.582;2023-04-21T09:26:18;20.60;48.20
41644;DHT22;44236;48.098;11.582;2023-04-21T09:28:45;20.60;48.60
41644;DHT22;44236;48.098;11.582;2023-04-21T09:31:19;20.60;48.90
41644;DHT22;44236;48.098;11.582;2023-04-21T09:33:52;20.60;48.70
41644;DHT22;44236;48.098;11.582;2023-04-21T09:36:19;20.50;48.30
41644;DHT22;44236;48.098;11.582;2023-04-21T09:39:04;20.50;48.80
41644;DHT22;44236;48.098;11.582;2023-04-21T09:41:31;20.50;48.40
41644;DHT22;44236;48.098;11.582;2023-04-21T09:43:57;20.50;48.40
41644;DHT22;44236;48.098;11.582;2023-04-21T09:46:27;20.50;48.50
41644;DHT22;44236;48.098;11.582;2023-04-21T09:48:55;20.60;48.60
41644;DHT22;44236;48.098;11.582;2023-04-21T09:51:21;20.60;47.80
41644;DHT22;44236;48.098;11.582;2023-04-21T09:53:53;20.70;47.30
41644;DHT22;44236;48.098;11.582;2023-04-21T09:56:24;20.70;47.00
41644;DHT22;44236;48.098;11.582;2023-04-21T09:58:56;20.70;47.20
41644;DHT22;44236;48.098;11.582;2023-04-21T10:01:24;20.70;48.10
41644;DHT22;44236;48.098;11.582;2023-04-21T10:03:51;20.60;48.40
41644;DHT22;44236;48.098;11.582;2023-04-21T10:06:18;20.60;48.60
41644;DHT22;44236;48.098;11.582;2023-04-21T10:08:44;20.60;48.70
41644;DHT22;44236;48.098;11.582;2023-04-21T10:11:10;20.60;48.80
41644;DHT22;44236;48.098;11.582;2023-04-21T10:13:37;20.50;48.80
41644;DHT22;44236;48.098;11.582;2023-04-21T10:16:07;20.50;49.20
41644;DHT22;44236;48.098;11.582;2023-04-21T10:18:38;20.50;49.20
41644;DHT22;44236;48.098;11.582;2023-04-21T10:21:08;20.60;49.60
41644;DHT22;44236;48.098;11.582;2023-04-21T10:23:46;20.50;50.10
41644;DHT22;44236;48.098;11.582;2023-04-21T10:41:51;20.70;50.00
41644;DHT22;44236;48.098;11.582;2023-04-21T10:44:20;20.60;49.90
41644;DHT22;44236;48.098;11.582;2023-04-21T10:46:50;20.70;50.00
41644;DHT22;44236;48.098;11.582;2023-04-21T10:49:26;20.70;50.00
41644;DHT22;44236;48.098;11.582;2023-04-21T10:57:16;20.80;49.40
41644;DHT22;44236;48.098;11.582;2023-04-21T10:59:43;20.80;49.10
41644;DHT22;44236;48.098;11.582;2023-04-21T11:02:20;20.80;48.90
41644;DHT22;44236;48.098;11.582;2023-04-21T11:04:50;20.70;48.90
41644;DHT22;44236;48.098;11.582;2023-04-21T11:07:17;20.70;49.30
41644;DHT22;44236;48.098;11.582;2023-04-21T11:09:45;20.80;49.50
41644;DHT22;44236;48.098;11.582;2023-04-21T11:12:12;20.70;49.30
41644;DHT22;44236;48.098;11.582;2023-04-21T11:14:41;20.80;49.50
41644;DHT22;44236;48.098;11.582;2023-04-21T11:17:11;20.80;49.20
41644;DHT22;44236;48.098;11.582;2023-04-21T11:19:38;20.80;49.30
41644;DHT22;44236;48.098;11.582;2023-04-21T11:22:04;20.80;49.20
41644;DHT22;44236;48.098;11.582;2023-04-21T11:24:30;20.80;49.10
41644;DHT22;44236;48.098;11.582;2023-04-21T11:26:56;20.90;49.10
41644;DHT22;44236;48.098;11.582;2023-04-21T11:29:22;20.90;49.00
41644;DHT22;44236;48.098;11.582;2023-04-21T11:31:48;20.90;48.80
41644;DHT22;44236;48.098;11.582;2023-04-21T11:34:15;20.90;48.90
41644;DHT22;44236;48.098;11.582;2023-04-21T11:36:45;20.90;49.00
41644;DHT22;44236;48.098;11.582;2023-04-21T11:39:13;20.90;48.70
41644;DHT22;44236;48.098;11.582;2023-04-21T11:41:47;20.90;48.60
41644;DHT22;44236;48.098;11.582;2023-04-21T11:44:29;20.90;48.60
41644;DHT22;44236;48.098;11.582;2023-04-21T11:46:54;20.90;48.70
41644;DHT22;44236;48.098;11.582;2023-04-21T11:49:24;20.90;48.50
41644;DHT22;44236;48.098;11.582;2023-04-21T11:51:50;20.90;48.30
41644;DHT22;44236;48.098;11.582;2023-04-21T11:54:17;20.90;47.90
41644;DHT22;44236;48.098;11.582;2023-04-21T11:56:45;20.90;48.50
41644;DHT22;44236;48.098;11.582;2023-04-21T11:59:13;20.90;48.50
41644;DHT22;44236;48.098;11.582;2023-04-21T12:01:43;20.90;48.40
41644;DHT22;44236;48.098;11.582;2023-04-21T12:04:20;20.90;48.50
41644;DHT22;44236;48.098;11.582;2023-04-21T12:06:46;20.90;48.20
41644;DHT22;44236;48.098;11.582;2023-04-21T12:09:19;20.90;48.10
41644;DHT22;44236;48.098;11.582;2023-04-21T12:11:50;20.90;47.90
41644;DHT22;44236;48.098;11.582;2023-04-21T12:14:18;20.90;48.30
41644;DHT22;44236;48.098;11.582;2023-04-21T12:16:46;20.90;48.30
41644;DHT22;44236;48.098;11.582;2023-04-21T12:19:36;20.90;47.90
41644;DHT22;44236;48.098;11.582;2023-04-21T12:22:08;20.90;48.00
41644;DHT22;44236;48.098;11.582;2023-04-21T12:24:34;21.00;48.60
41644;DHT22;44236;48.098;11.582;2023-04-21T12:27:00;20.90;47.40
41644;DHT22;44236;48.098;11.582;2023-04-21T12:29:27;20.90;47.60
41644;DHT22;44236;48.098;11.582;2023-04-21T12:31:52;20.90;48.00
41644;DHT22;44236;48.098;11.582;2023-04-21T12:34:18;20.90;47.90
41644;DHT22;44236;48.098;11.582;2023-04-21T12:36:43;20.90;48.00
41644;DHT22;44236;48.098;11.582;2023-04-21T12:39:09;21.00;47.60
41644;DHT22;44236;48.098;11.582;2023-04-21T12:41:35;20.90;48.10
41644;DHT22;44236;48.098;11.582;2023-04-21T12:44:00;20.90;47.50
41644;DHT22;44236;48.098;11.582;2023-04-21T12:46:27;20.90;47.50
41644;DHT22;44236;48.098;11.582;2023-04-21T12:48:52;20.90;47.20
41644;DHT22;44236;48.098;11.582;2023-04-21T12:51:18;20.90;48.10
41644;DHT22;44236;48.098;11.582;2023-04-21T12:53:44;21.00;48.30
41644;DHT22;44236;48.098;11.582;2023-04-21T12:56:10;21.00;47.10
41644;DHT22;44236;48.098;11.582;2023-04-21T12:58:36;21.00;47.20
41644;DHT22;44236;48.098;11.582;2023-04-21T13:01:02;21.00;47.30
41644;DHT22;44236;48.098;11.582;2023-04-21T13:03:27;21.00;47.40
41644;DHT22;44236;48.098;11.582;2023-04-21T13:05:53;20.90;47.40
41644;DHT22;44236;48.098;11.582;2023-04-21T13:08:20;21.00;47.50
41644;DHT22;44236;48.098;11.582;2023-04-21T13:10:45;21.00;47.10
41644;DHT22;44236;48.098;11.582;2023-04-21T13:13:11;21.00;47.70
41644;DHT22;44236;48.098;11.582;2023-04-21T13:15:37;21.00;47.40
41644;DHT22;44236;48.098;11.582;2023-04-21T13:18:02;20.90;47.30
41644;DHT22;44236;48.098;11.582;2023-04-21T13:20:28;20.90;47.70
41644;DHT22;44236;48.098;11.582;2023-04-21T13:22:54;21.00;48.30
41644;DHT22;44236;48.098;11.582;2023-04-21T13:25:20;20.90;48.60
41644;DHT22;44236;48.098;11.582;2023-04-21T13:27:45;21.00;46.90
41644;DHT22;44236;48.098;11.582;2023-04-21T13:30:12;20.90;46.40
41644;DHT22;44236;48.098;11.582;2023-04-21T13:32:39;20.90;45.70
41644;DHT22;44236;48.098;11.582;2023-04-21T13:35:05;20.90;45.20
41644;DHT22;44236;48.098;11.582;2023-04-21T13:37:40;20.80;44.70
41644;DHT22;44236;48.098;11.582;2023-04-21T13:40:06;20.80;44.60
41644;DHT22;44236;48.098;11.582;2023-04-21T13:42:33;20.80;44.30
41644;DHT22;44236;48.098;11.582;2023-04-21T13:44:59;20.70;43.90
41644;DHT22;44236;48.098;11.582;2023-04-21T13:47:31;20.70;43.80
41644;DHT22;44236;48.098;11.582;2023-04-21T13:49:57;20.70;43.80
41644;DHT22;44236;48.098;11.582;2023-04-21T13:52:23;20.70;43.80
41644;DHT22;44236;48.098;11.582;2023-04-21T13:54:50;20.70;43.70
41644;DHT22;44236;48.098;11.582;2023-04-21T13:57:16;20.60;43.50
41644;DHT22;44236;48.098;11.582;2023-04-21T13:59:42;20.70;43.50
41644;DHT22;44236;48.098;11.582;2023-04-21T14:02:08;20.60;43.30
41644;DHT22;44236;48.098;11.582;2023-04-21T14:04:34;20.60;43.10
41644;DHT22;44236;48.098;11.582;2023-04-21T14:07:00;20.70;43.30
41644;DHT22;44236;48.098;11.582;2023-04-21T14:09:26;20.70;43.40
41644;DHT22;44236;48.098;11.582;2023-04-21T14:11:52;20.70;42.90
41644;DHT22;44236;48.098;11.582;2023-04-21T14:14:18;20.60;42.60
41644;DHT22;44236;48.098;11.582;2023-04-21T14:16:45;20.60;42.50
41644;DHT22;44236;48.098;11.582;2023-04-21T14:19:14;20.60;42.60
41644;DHT22;44236;48.098;11.582;2023-04-21T14:21:40;20.60;43.00
41644;DHT22;44236;48.098;11.582;2023-04-21T14:24:06;20.60;43.20
41644;DHT22;44236;48.098;11.582;2023-04-21T14:26:31;20.60;44.30
41644;DHT22;44236;48.098;11.582;2023-04-21T14:28:57;20.60;44.50
41644;DHT22;44236;48.098;11.582;2023-04-21T14:31:24;20.60;43.80
41644;DHT22;44236;48.098;11.582;2023-04-21T14:33:50;20.60;43.50
41644;DHT22;44236;48.098;11.582;2023-04-21T14:36:15;20.60;43.00
41644;DHT22;44236;48.098;11.582;2023-04-21T14:38:41;20.60;42.80
41644;DHT22;44236;48.098;11.582;2023-04-21T14:41:07;20.60;42.90
41644;DHT22;44236;48.098;11.582;2023-04-21T14:43:33;20.60;42.80
41644;DHT22;44236;48.098;11.582;2023-04-21T14:45:59;20.60;42.90
41644;DHT22;44236;48.098;11.582;2023-04-21T14:48:25;20.60;42.80
41644;DHT22;44236;48.098;11.582;2023-04-21T14:50:50;20.60;42.50
41644;DHT22;44236;48.098;11.582;2023-04-21T14:53:16;20.60;42.10
41644;DHT22;44236;48.098;11.582;2023-04-21T14:55:45;20.60;41.70
41644;DHT22;44236;48.098;11.582;2023-04-21T14:58:10;20.50;41.90
41644;DHT22;44236;48.098;11.582;2023-04-21T15:00:37;20.50;41.50
41644;DHT22;44236;48.098;11.582;2023-04-21T15:03:03;20.50;42.30
41644;DHT22;44236;48.098;11.582;2023-04-21T15:05:29;20.50;42.70
41644;DHT22;44236;48.098;11.582;2023-04-21T15:07:54;20.50;42.20
41644;DHT22;44236;48.098;11.582;2023-04-21T15:10:20;20.50;42.70
41644;DHT22;44236;48.098;11.582;2023-04-21T15:12:46;20.50;41.90
41644;DHT22;44236;48.098;11.582;2023-04-21T15:15:11;20.50;41.60
41644;DHT22;44236;48.098;11.582;2023-04-21T15:17:37;20.50;41.50
41644;DHT22;44236;48.098;11.582;2023-04-21T15:20:03;20.50;42.30
41644;DHT22;44236;48.098;11.582;2023-04-21T15:22:29;20.50;41.10
41644;DHT22;44236;48.098;11.582;2023-04-21T15:24:55;20.50;40.90
41644;DHT22;44236;48.098;11.582;2023-04-21T15:27:21;20.50;41.20
41644;DHT22;44236;48.098;11.582;2023-04-21T15:29:47;20.50;41.60
41644;DHT22;44236;48.098;11.582;2023-04-21T15:32:13;20.50;41.50